createdAt,value
2022-12-01T00:01:31.270Z,102485.03
2022-12-01T00:03:58.515Z,102486.78
2022-12-01T00:06:25.934Z,102482.41
2022-12-01T00:09:15.302Z,102482.41
2022-12-01T00:11:48.853Z,102488.47
2022-12-01T00:14:16.456Z,102485.88
2022-12-01T00:16:44.615Z,102481.53
2022-12-01T00:19:12.020Z,102485.00
2022-12-01T00:21:39.228Z,102483.31
2022-12-01T00:24:09.402Z,102487.59
2022-12-01T00:26:38.890Z,102478.09
2022-12-01T00:29:06.117Z,102482.44
2022-12-01T00:31:33.546Z,102482.44
2022-12-01T00:34:03.025Z,102476.38
2022-12-01T00:36:32.181Z,102475.53
2022-12-01T00:38:59.325Z,102477.25
2022-12-01T00:41:26.899Z,102476.41
2022-12-01T00:43:54.194Z,102477.28
2022-12-01T00:46:21.729Z,102475.56
2022-12-01T00:48:49.486Z,102480.75
2022-12-01T00:51:16.685Z,102475.56
2022-12-01T00:53:43.916Z,102476.44
2022-12-01T00:56:11.195Z,102479.03
2022-12-01T00:58:38.446Z,102480.78
2022-12-01T01:01:05.963Z,102485.97
2022-12-01T01:03:34.697Z,102487.66
2022-12-01T01:06:13.284Z,102478.16
2022-12-01T01:08:41.137Z,102483.34
2022-12-01T01:11:09.644Z,102481.63
2022-12-01T01:13:37.980Z,102493.75
2022-12-01T01:16:14.760Z,102489.41
2022-12-01T01:18:42.084Z,102492.00
2022-12-01T01:21:17.654Z,102493.75
2022-12-01T01:23:45.129Z,102495.47
2022-12-01T01:26:27.661Z,102495.47
2022-12-01T01:29:00.760Z,102499.78
2022-12-01T01:31:31.268Z,102502.41
2022-12-01T01:33:59.451Z,102502.41
2022-12-01T01:36:27.755Z,102502.41
2022-12-01T01:38:55.787Z,102508.47
2022-12-01T01:41:24.666Z,102505.00
2022-12-01T01:44:03.183Z,102512.78
2022-12-01T01:46:35.119Z,102513.66
2022-12-01T01:49:14.347Z,102506.78
2022-12-01T01:51:53.467Z,102511.09
2022-12-01T01:54:31.478Z,102507.63
2022-12-01T01:57:02.400Z,102513.72
2022-12-01T01:59:42.144Z,102509.38
2022-12-01T02:02:12.830Z,102509.38
2022-12-01T02:04:51.039Z,102511.97
2022-12-01T02:07:19.822Z,102509.38
2022-12-01T02:09:47.676Z,102510.25
2022-12-01T02:13:02.233Z,102508.53
2022-12-01T02:16:00.011Z,102506.81
2022-12-01T02:18:57.216Z,102504.22
2022-12-01T02:22:00.582Z,102502.47
2022-12-01T02:25:13.256Z,102505.06
2022-12-01T02:28:43.368Z,102517.22
2022-12-01T02:31:43.107Z,102511.16
2022-12-01T02:34:33.855Z,102510.28
2022-12-01T02:37:47.886Z,102514.63
2022-12-01T02:40:31.554Z,102507.66
2022-12-01T02:43:41.927Z,102506.81
2022-12-01T02:46:32.809Z,102511.16
2022-12-01T02:49:10.426Z,102512.03
2022-12-01T02:51:44.619Z,102515.47
2022-12-01T02:54:15.681Z,102514.59
2022-12-01T02:56:45.664Z,102517.19
2022-12-01T02:59:15.234Z,102509.41
2022-12-01T03:02:15.378Z,102513.75
2022-12-01T03:05:23.805Z,102519.81
2022-12-01T03:08:26.880Z,102512.88
2022-12-01T03:10:58.590Z,102518.06
2022-12-01T03:13:56.160Z,102512.00
2022-12-01T03:16:29.116Z,102514.63
2022-12-01T03:19:05.596Z,102518.06
2022-12-01T03:21:48.199Z,102517.19
2022-12-01T03:24:20.392Z,102518.06
2022-12-01T03:26:57.796Z,102506.78
2022-12-01T03:29:43.591Z,102510.22
2022-12-01T03:32:24.748Z,102507.63
2022-12-01T03:35:04.755Z,102509.38
2022-12-01T03:37:48.005Z,102522.38
2022-12-01T03:40:25.564Z,102511.09
2022-12-01T03:43:13.052Z,102506.75
2022-12-01T03:46:33.029Z,102511.97
2022-12-01T03:49:00.663Z,102510.22
2022-12-01T03:51:55.522Z,102510.22
2022-12-01T03:55:13.110Z,102510.22
2022-12-01T03:58:02.833Z,102507.63
2022-12-01T04:00:31.796Z,102514.56
2022-12-01T04:03:04.141Z,102516.28
2022-12-01T04:05:34.991Z,102527.56
2022-12-01T04:08:02.727Z,102530.19
2022-12-01T04:10:30.064Z,102518.94
2022-12-01T04:12:59.687Z,102524.13
2022-12-01T04:15:28.134Z,102516.34
2022-12-01T04:17:55.592Z,102527.59
2022-12-01T04:20:23.124Z,102522.41
2022-12-01T04:22:50.563Z,102527.59
2022-12-01T04:25:17.911Z,102527.59
2022-12-01T04:27:45.090Z,102537.13
2022-12-01T04:30:13.184Z,102529.31
2022-12-01T04:32:43.186Z,102522.38
2022-12-01T04:35:13.027Z,102517.19
2022-12-01T04:37:41.431Z,102521.53
2022-12-01T04:40:10.223Z,102505.94
2022-12-01T04:42:37.396Z,102518.94
2022-12-01T04:45:05.322Z,102507.66
2022-12-01T04:47:32.512Z,102518.94
2022-12-01T04:50:00.536Z,102515.47
2022-12-01T04:52:33.628Z,102519.78
2022-12-01T04:55:04.028Z,102512.00
2022-12-01T04:57:31.177Z,102521.53
2022-12-01T04:59:58.373Z,102523.25
2022-12-01T05:02:25.605Z,102518.94
2022-12-01T05:04:52.953Z,102513.75
2022-12-01T05:07:20.182Z,102525.84
2022-12-01T05:09:47.736Z,102520.66
2022-12-01T05:12:17.130Z,102520.66
2022-12-01T05:14:44.298Z,102520.69
2022-12-01T05:17:11.503Z,102513.78
2022-12-01T05:19:57.363Z,102526.75
2022-12-01T05:22:56.804Z,102520.69
2022-12-01T05:25:11.703Z,102525.03
2022-12-01T05:27:38.871Z,102525.03
2022-12-01T05:30:07.330Z,102523.28
2022-12-01T05:32:34.493Z,102527.63
2022-12-01T05:35:01.709Z,102521.56
2022-12-01T05:37:34.576Z,102534.56
2022-12-01T05:40:02.286Z,102532.81
2022-12-01T05:42:29.484Z,102541.44
2022-12-01T05:44:56.818Z,102538.84
2022-12-01T05:47:23.984Z,102538.88
2022-12-01T05:49:51.562Z,102537.16
2022-12-01T05:52:18.852Z,102531.06
2022-12-01T05:54:46.003Z,102531.94
2022-12-01T05:57:13.174Z,102540.59
2022-12-01T05:59:40.363Z,102539.72
2022-12-01T06:02:07.626Z,102537.13
2022-12-01T06:04:35.020Z,102537.13
2022-12-01T06:07:02.219Z,102546.63
2022-12-01T06:09:29.402Z,102540.56
2022-12-01T06:11:56.783Z,102538.84
2022-12-01T06:14:24.506Z,102537.97
2022-12-01T06:16:52.111Z,102540.56
2022-12-01T06:19:19.382Z,102548.38
2022-12-01T06:21:46.531Z,102540.59
2022-12-01T06:24:13.740Z,102539.72
2022-12-01T06:26:40.966Z,102537.13
2022-12-01T06:29:10.702Z,102547.47
2022-12-01T06:31:41.042Z,102537.06
2022-12-01T06:34:08.446Z,102538.81
2022-12-01T06:36:35.623Z,102537.97
2022-12-01T06:39:10.145Z,102539.72
2022-12-01T06:41:39.235Z,102546.63
2022-12-01T06:44:06.528Z,102548.34
2022-12-01T06:46:33.743Z,102541.41
2022-12-01T06:49:00.925Z,102541.41
2022-12-01T06:51:28.623Z,102544.03
2022-12-01T06:53:59.743Z,102557.91
2022-12-01T06:56:31.045Z,102558.75
2022-12-01T06:58:58.666Z,102564.81
2022-12-01T07:01:26.678Z,102564.81
2022-12-01T07:03:54.829Z,102572.63
2022-12-01T07:06:22.108Z,102579.56
2022-12-01T07:08:49.429Z,102577.81
2022-12-01T07:11:16.890Z,102576.97
2022-12-01T07:13:49.476Z,102571.75
2022-12-01T07:16:16.796Z,102589.94
2022-12-01T07:18:45.101Z,102569.16
2022-12-01T07:21:15.171Z,102579.56
2022-12-01T07:23:43.646Z,102575.22
2022-12-01T07:26:18.519Z,102582.16
2022-12-01T07:28:46.156Z,102587.38
2022-12-01T07:31:19.856Z,102578.69
2022-12-01T07:33:47.198Z,102591.69
2022-12-01T07:36:15.339Z,102595.16
2022-12-01T07:38:42.764Z,102590.84
2022-12-01T07:41:14.874Z,102588.25
2022-12-01T07:43:42.796Z,102590.84
2022-12-01T07:46:23.824Z,102594.34
2022-12-01T07:48:53.912Z,102590.84
2022-12-01T07:51:24.408Z,102598.66
2022-12-01T07:53:53.861Z,102590.84
2022-12-01T07:56:23.336Z,102595.19
2022-12-01T07:58:51.444Z,102596.06
2022-12-01T08:01:23.359Z,102601.25
2022-12-01T08:03:56.691Z,102598.66
2022-12-01T08:06:26.683Z,102596.94
2022-12-01T08:08:54.028Z,102600.41
2022-12-01T08:11:25.048Z,102604.72
2022-12-01T08:13:53.980Z,102613.38
2022-12-01T08:16:24.260Z,102612.50
2022-12-01T08:18:51.886Z,102607.31
2022-12-01T08:21:23.182Z,102606.41
2022-12-01T08:23:58.260Z,102610.75
2022-12-01T08:26:26.864Z,102619.41
2022-12-01T08:28:54.064Z,102621.16
2022-12-01T08:31:31.110Z,102614.22
2022-12-01T08:33:58.702Z,102609.91
2022-12-01T08:36:26.233Z,102609.00
2022-12-01T08:38:55.957Z,102616.81
2022-12-01T08:41:24.847Z,102616.81
2022-12-01T08:44:01.306Z,102621.16
2022-12-01T08:46:34.893Z,102620.28
2022-12-01T08:49:05.750Z,102622.91
2022-12-01T08:51:33.271Z,102617.69
2022-12-01T08:54:01.377Z,102628.09
2022-12-01T08:56:40.516Z,102609.94
2022-12-01T08:59:08.455Z,102616.84
2022-12-01T09:01:51.986Z,102617.72
2022-12-01T09:04:25.851Z,102622.94
2022-12-01T09:06:56.980Z,102622.94
2022-12-01T09:09:29.369Z,102622.06
2022-12-01T09:11:57.787Z,102622.03
2022-12-01T09:14:24.970Z,102622.03
2022-12-01T09:16:52.218Z,102622.03
2022-12-01T09:19:24.528Z,102624.63
2022-12-01T09:21:53.168Z,102622.03
2022-12-01T09:24:20.392Z,102629.81
2022-12-01T09:26:47.781Z,102628.97
2022-12-01T09:29:16.983Z,102628.09
2022-12-01T09:31:44.757Z,102628.03
2022-12-01T09:34:18.192Z,102632.38
2022-12-01T09:36:47.692Z,102635.84
2022-12-01T09:39:20.651Z,102639.31
2022-12-01T09:42:13.833Z,102642.78
2022-12-01T09:44:53.750Z,102643.63
2022-12-01T09:47:44.956Z,102640.97
2022-12-01T09:50:23.946Z,102638.38
2022-12-01T09:53:08.565Z,102631.44
2022-12-01T09:55:36.504Z,102632.25
2022-12-01T09:58:17.832Z,102628.75
2022-12-01T10:00:46.998Z,102628.69
2022-12-01T10:03:22.242Z,102611.31
2022-12-01T10:06:26.765Z,102619.09
2022-12-01T10:09:25.684Z,102616.41
2022-12-01T10:12:06.735Z,102617.19
2022-12-01T10:14:37.446Z,102611.97
2022-12-01T10:17:40.445Z,102618.03
2022-12-01T10:21:01.591Z,102608.41
2022-12-01T10:24:06.783Z,102605.72
2022-12-01T10:27:23.448Z,102600.44
2022-12-01T10:30:29.089Z,102606.44
2022-12-01T10:33:18.424Z,102606.41
2022-12-01T10:35:45.925Z,102600.34
2022-12-01T10:38:36.936Z,102587.31
2022-12-01T10:41:12.323Z,102594.19
2022-12-01T10:43:49.095Z,102583.69
2022-12-01T10:46:41.329Z,102584.53
2022-12-01T10:49:14.038Z,102592.25
2022-12-01T10:51:58.156Z,102588.66
2022-12-01T10:54:41.269Z,102585.94
2022-12-01T10:57:17.788Z,102586.84
2022-12-01T11:00:02.777Z,102586.88
2022-12-01T11:02:32.575Z,102591.25
2022-12-01T11:05:20.931Z,102581.72
2022-12-01T11:07:49.799Z,102577.38
2022-12-01T11:10:29.189Z,102578.28
2022-12-01T11:13:34.021Z,102580.91
2022-12-01T11:16:06.623Z,102576.59
2022-12-01T11:18:39.138Z,102579.19
2022-12-01T11:21:27.882Z,102580.06
2022-12-01T11:23:56.785Z,102578.31
2022-12-01T11:26:33.211Z,102580.94
2022-12-01T11:29:27.581Z,102579.22
2022-12-01T11:31:56.126Z,102577.44
2022-12-01T11:34:34.601Z,102570.50
2022-12-01T11:37:17.127Z,102565.22
2022-12-01T11:39:48.342Z,102567.81
2022-12-01T11:42:34.308Z,102562.69
2022-12-01T11:45:24.942Z,102557.53
2022-12-01T11:48:21.163Z,102553.22
2022-12-01T11:51:19.455Z,102554.09
2022-12-01T11:53:47.405Z,102554.94
2022-12-01T11:56:28.671Z,102555.78
2022-12-01T11:59:15.646Z,102560.16
2022-12-01T12:02:21.110Z,102552.34
2022-12-01T12:06:38.837Z,102548.88
2022-12-01T12:09:21.696Z,102540.28
2022-12-01T12:12:26.644Z,102546.34
2022-12-01T12:15:44.272Z,102546.31
2022-12-01T12:19:00.406Z,102546.31
2022-12-01T12:22:05.223Z,102543.75
2022-12-01T12:25:27.431Z,102544.59
2022-12-01T12:28:52.643Z,102546.34
2022-12-01T12:32:26.738Z,102540.31
2022-12-01T12:35:06.048Z,102537.72
2022-12-01T12:38:09.091Z,102533.34
2022-12-01T12:41:15.852Z,102535.94
2022-12-01T12:44:30.016Z,102532.47
2022-12-01T12:47:31.582Z,102525.47
2022-12-01T12:50:45.188Z,102523.69
2022-12-01T12:53:27.035Z,102524.56
2022-12-01T12:56:04.673Z,102521.03
2022-12-01T12:58:47.446Z,102525.31
2022-12-01T13:01:40.492Z,102511.38
2022-12-01T13:04:18.371Z,102515.63
2022-12-01T13:07:18.983Z,102517.31
2022-12-01T13:10:00.788Z,102519.06
2022-12-01T13:12:41.872Z,102509.16
2022-12-01T13:15:20.723Z,102510.66
2022-12-01T13:18:29.303Z,102506.19
2022-12-01T13:20:58.438Z,102506.88
2022-12-01T13:23:26.370Z,102499.06
2022-12-01T13:26:00.482Z,102492.97
2022-12-01T13:29:04.557Z,102492.97
2022-12-01T13:31:49.396Z,102482.63
2022-12-01T13:34:40.571Z,102493.16
2022-12-01T13:37:15.859Z,102492.34
2022-12-01T13:39:45.306Z,102490.66
2022-12-01T13:42:26.980Z,102489.00
2022-12-01T13:45:07.073Z,102488.97
2022-12-01T13:47:57.038Z,102477.75
2022-12-01T13:51:03.621Z,102486.47
2022-12-01T13:53:39.466Z,102472.72
2022-12-01T13:56:43.967Z,102477.16
2022-12-01T14:00:03.268Z,102482.50
2022-12-01T14:02:39.777Z,102479.13
2022-12-01T14:05:24.914Z,102484.44
2022-12-01T14:07:54.638Z,102488.03
2022-12-01T14:10:31.357Z,102483.72
2022-12-01T14:13:06.573Z,102488.06
2022-12-01T14:15:42.678Z,102487.25
2022-12-01T14:18:56.814Z,102481.22
2022-12-01T14:21:49.590Z,102492.56
2022-12-01T14:24:35.342Z,102487.38
2022-12-01T14:27:05.603Z,102489.13
2022-12-01T14:29:38.806Z,102492.66
2022-12-01T14:32:09.114Z,102500.50
2022-12-01T14:34:39.039Z,102497.94
2022-12-01T14:37:19.772Z,102502.34
2022-12-01T14:40:13.590Z,102496.28
2022-12-01T14:43:05.862Z,102502.38
2022-12-01T14:45:48.400Z,102501.56
2022-12-01T14:48:26.959Z,102501.56
2022-12-01T14:51:27.986Z,102506.75
2022-12-01T14:53:58.289Z,102494.59
2022-12-01T14:56:27.375Z,102485.94
2022-12-01T14:59:13.692Z,102485.03
2022-12-01T15:01:41.607Z,102485.09
2022-12-01T15:04:08.862Z,102485.09
2022-12-01T15:06:37.916Z,102485.97
2022-12-01T15:09:36.171Z,102492.06
2022-12-01T15:12:09.400Z,102494.66
2022-12-01T15:14:49.374Z,102495.56
2022-12-01T15:17:34.636Z,102489.50
2022-12-01T15:20:03.942Z,102491.22
2022-12-01T15:22:34.101Z,102499.94
2022-12-01T15:25:14.976Z,102497.38
2022-12-01T15:27:44.140Z,102500.03
2022-12-01T15:30:18.783Z,102503.53
2022-12-01T15:32:46.413Z,102502.66
2022-12-01T15:35:23.630Z,102500.97
2022-12-01T15:37:53.461Z,102506.22
2022-12-01T15:43:23.111Z,102504.56
2022-12-01T15:46:10.873Z,102502.81
2022-12-01T15:48:38.969Z,102508.88
2022-12-01T15:51:28.341Z,102502.81
2022-12-01T15:54:01.461Z,102501.94
2022-12-01T15:56:41.376Z,102514.13
2022-12-01T15:59:12.803Z,102510.59
2022-12-01T16:01:44.294Z,102507.13
2022-12-01T16:04:35.387Z,102509.75
2022-12-01T16:07:10.835Z,102507.13
2022-12-01T16:10:00.737Z,102499.34
2022-12-01T16:12:37.099Z,102494.16
2022-12-01T16:15:18.663Z,102500.19
2022-12-01T16:17:53.817Z,102507.13
2022-12-01T16:20:33.828Z,102507.13
2022-12-01T16:23:15.464Z,102510.59
2022-12-01T16:25:47.846Z,102509.72
2022-12-01T16:28:35.762Z,102506.28
2022-12-01T16:31:05.710Z,102516.69
2022-12-01T16:33:38.800Z,102511.47
2022-12-01T16:36:06.907Z,102518.38
2022-12-01T16:38:34.168Z,102521.88
2022-12-01T16:41:15.703Z,102514.09
2022-12-01T16:43:59.208Z,102515.81
2022-12-01T16:46:30.244Z,102508.00
2022-12-01T16:48:57.519Z,102505.38
2022-12-01T16:51:35.590Z,102508.03
2022-12-01T16:54:10.373Z,102506.31
2022-12-01T16:56:37.550Z,102508.06
2022-12-01T16:59:04.981Z,102506.31
2022-12-01T17:01:32.957Z,102510.63
2022-12-01T17:04:04.675Z,102506.38
2022-12-01T17:06:34.556Z,102515.88
2022-12-01T17:09:01.764Z,102517.66
2022-12-01T17:11:28.913Z,102508.09
2022-12-01T17:13:56.083Z,102509.03
2022-12-01T17:16:23.408Z,102509.88
2022-12-01T17:18:50.686Z,102509.03
2022-12-01T17:21:18.183Z,102509.88
2022-12-01T17:23:45.779Z,102513.34
2022-12-01T17:26:19.160Z,102501.28
2022-12-01T17:28:47.146Z,102502.09
2022-12-01T17:31:15.615Z,102514.25
2022-12-01T17:33:43.225Z,102505.59
2022-12-01T17:36:15.850Z,102505.59
2022-12-01T17:38:46.461Z,102508.22
2022-12-01T17:41:21.943Z,102503.91
2022-12-01T17:43:49.631Z,102503.91
2022-12-01T17:46:17.323Z,102513.44
2022-12-01T17:48:47.071Z,102510.00
2022-12-01T17:51:15.472Z,102516.94
2022-12-01T17:53:42.772Z,102517.78
2022-12-01T17:56:14.260Z,102514.34
2022-12-01T17:58:42.774Z,102516.03
2022-12-01T18:01:17.528Z,102520.38
2022-12-01T18:03:45.610Z,102520.38
2022-12-01T18:06:14.035Z,102513.44
2022-12-01T18:08:42.789Z,102507.38
2022-12-01T18:11:16.961Z,102513.44
2022-12-01T18:13:49.321Z,102508.22
2022-12-01T18:16:25.605Z,102522.13
2022-12-01T18:18:55.083Z,102510.81
2022-12-01T18:21:25.236Z,102505.63
2022-12-01T18:24:03.173Z,102506.53
2022-12-01T18:26:35.643Z,102512.59
2022-12-01T18:29:16.058Z,102509.13
2022-12-01T18:31:43.632Z,102504.78
2022-12-01T18:34:12.392Z,102508.25
2022-12-01T18:36:41.699Z,102509.16
2022-12-01T18:39:11.558Z,102496.16
2022-12-01T18:41:39.901Z,102505.69
2022-12-01T18:44:07.342Z,102499.63
2022-12-01T18:46:35.167Z,102496.19
2022-12-01T18:49:03.055Z,102497.06
2022-12-01T18:51:34.900Z,102500.50
2022-12-01T18:54:06.246Z,102501.41
2022-12-01T18:56:34.442Z,102501.41
2022-12-01T18:59:08.437Z,102496.19
2022-12-01T19:01:43.941Z,102490.13
2022-12-01T19:04:16.511Z,102494.47
2022-12-01T19:06:46.028Z,102500.53
2022-12-01T19:09:16.118Z,102494.47
2022-12-01T19:11:44.332Z,102495.34
2022-12-01T19:14:17.844Z,102500.53
2022-12-01T19:16:47.007Z,102495.34
2022-12-01T19:19:14.342Z,102491.91
2022-12-01T19:21:42.881Z,102491.06
2022-12-01T19:24:10.155Z,102492.78
2022-12-01T19:26:37.707Z,102498.91
2022-12-01T19:29:05.780Z,102496.31
2022-12-01T19:31:33.041Z,102497.16
2022-12-01T19:34:04.844Z,102510.16
2022-12-01T19:36:32.120Z,102496.28
2022-12-01T19:39:03.998Z,102508.41
2022-12-01T19:41:34.619Z,102504.09
2022-12-01T19:44:01.947Z,102506.69
2022-12-01T19:46:29.184Z,102501.47
2022-12-01T19:49:01.395Z,102499.75
2022-12-01T19:51:40.179Z,102497.13
2022-12-01T19:54:16.992Z,102495.41
2022-12-01T19:56:44.930Z,102502.34
2022-12-01T19:59:13.606Z,102496.31
2022-12-01T20:01:41.537Z,102510.16
2022-12-01T20:04:09.059Z,102500.63
2022-12-01T20:06:37.848Z,102504.97
2022-12-01T20:09:07.781Z,102498.00
2022-12-01T20:11:36.241Z,102502.34
2022-12-01T20:14:07.661Z,102503.19
2022-12-01T20:16:35.270Z,102499.75
2022-12-01T20:19:04.888Z,102501.50
2022-12-01T20:21:42.140Z,102504.09
2022-12-01T20:24:19.894Z,102511.03
2022-12-01T20:26:56.655Z,102510.22
2022-12-01T20:29:28.996Z,102505.03
2022-12-01T20:32:00.149Z,102508.47
2022-12-01T20:34:34.951Z,102499.81
2022-12-01T20:37:03.041Z,102503.34
2022-12-01T20:39:35.672Z,102499.88
2022-12-01T20:42:05.986Z,102500.75
2022-12-01T20:44:33.287Z,102493.81
2022-12-01T20:47:00.811Z,102489.47
2022-12-01T20:49:27.980Z,102495.53
2022-12-01T20:51:55.253Z,102494.66
2022-12-01T20:54:30.436Z,102498.16
2022-12-01T20:56:58.938Z,102487.75
2022-12-01T20:59:27.400Z,102483.41
2022-12-01T21:01:55.527Z,102484.28
2022-12-01T21:04:22.821Z,102480.84
2022-12-01T21:06:50.191Z,102480.81
2022-12-01T21:09:18.137Z,102486.00
2022-12-01T21:12:08.561Z,102479.09
2022-12-01T21:15:01.508Z,102486.88
2022-12-01T21:18:05.156Z,102475.63
2022-12-01T21:20:45.766Z,102473.03
2022-12-01T21:23:16.318Z,102475.63
2022-12-01T21:25:44.647Z,102476.50
2022-12-01T21:28:22.340Z,102469.59
2022-12-01T21:31:17.396Z,102474.78
2022-12-01T21:33:44.779Z,102467.84
2022-12-01T21:36:26.053Z,102461.75
2022-12-01T21:39:15.539Z,102461.78
2022-12-01T21:41:43.004Z,102459.19
2022-12-01T21:44:21.553Z,102460.03
2022-12-01T21:46:57.962Z,102454.00
2022-12-01T21:49:40.072Z,102454.00
2022-12-01T21:52:30.420Z,102454.00
2022-12-01T21:55:17.644Z,102448.81
2022-12-01T21:57:52.165Z,102447.94
2022-12-01T22:00:28.704Z,102440.13
2022-12-01T22:03:29.506Z,102428.03
2022-12-01T22:09:31.391Z,102426.31
2022-12-01T22:12:15.065Z,102426.31
2022-12-01T22:14:42.309Z,102428.03
2022-12-01T22:17:09.333Z,102431.50
2022-12-01T22:19:46.783Z,102426.31
2022-12-01T22:22:27.737Z,102427.16
2022-12-01T22:25:07.446Z,102431.50
2022-12-01T22:27:40.869Z,102437.56
2022-12-01T22:30:07.930Z,102436.69
2022-12-01T22:32:38.107Z,102429.78
2022-12-01T22:35:45.273Z,102442.78
2022-12-01T22:38:43.186Z,102427.19
2022-12-01T22:41:16.527Z,102429.81
2022-12-01T22:43:44.668Z,102431.53
2022-12-01T22:46:26.379Z,102432.41
2022-12-01T22:49:08.667Z,102435.88
2022-12-01T22:51:59.974Z,102437.59
2022-12-01T22:54:38.941Z,102426.38
2022-12-01T22:57:19.106Z,102424.63
2022-12-01T22:59:47.745Z,102428.09
2022-12-01T23:02:35.589Z,102431.53
2022-12-01T23:05:28.958Z,102429.81
2022-12-01T23:07:57.522Z,102435.91
2022-12-01T23:10:35.421Z,102430.72
2022-12-01T23:13:23.126Z,102425.56
2022-12-01T23:15:56.201Z,102428.13
2022-12-01T23:18:32.018Z,102429.81
2022-12-01T23:21:02.681Z,102430.72
2022-12-01T23:23:37.183Z,102427.22
2022-12-01T23:26:08.911Z,102426.34
2022-12-01T23:28:39.363Z,102412.53
2022-12-01T23:31:06.528Z,102408.19
2022-12-01T23:33:35.497Z,102415.16
2022-12-01T23:36:25.974Z,102413.41
2022-12-01T23:39:02.142Z,102405.66
2022-12-01T23:41:45.914Z,102413.44
2022-12-01T23:44:49.657Z,102408.25
2022-12-01T23:47:26.694Z,102417.78
2022-12-01T23:50:03.162Z,102411.72
2022-12-01T23:52:36.966Z,102409.09
2022-12-01T23:55:28.869Z,102402.19
2022-12-01T23:57:57.006Z,102404.81
